sensor_id;sensor_type;location;lat;lon;timestamp;temperature;humidity
21171;DHT22;10743;52.160;20.910;2023-06-14T00:00:32;27.50;45.20
21171;DHT22;10743;52.160;20.910;2023-06-14T00:03:02;27.50;45.10
21171;DHT22;10743;52.160;20.910;2023-06-14T00:05:31;27.50;45.10
21171;DHT22;10743;52.160;20.910;2023-06-14T00:08:00;27.50;45.00
21171;DHT22;10743;52.160;20.910;2023-06-14T00:10:27;27.50;45.20
21171;DHT22;10743;52.160;20.910;2023-06-14T00:12:57;27.50;45.20
21171;DHT22;10743;52.160;20.910;2023-06-14T00:15:26;27.50;45.20
21171;DHT22;10743;52.160;20.910;2023-06-14T00:17:54;27.50;44.90
21171;DHT22;10743;52.160;20.910;2023-06-14T00:20:23;27.60;44.80
21171;DHT22;10743;52.160;20.910;2023-06-14T00:22:50;27.60;44.80
21171;DHT22;10743;52.160;20.910;2023-06-14T00:25:18;27.60;44.70
21171;DHT22;10743;52.160;20.910;2023-06-14T00:27:56;27.60;44.40
21171;DHT22;10743;52.160;20.910;2023-06-14T00:30:24;27.60;44.40
21171;DHT22;10743;52.160;20.910;2023-06-14T00:32:51;27.60;44.30
21171;DHT22;10743;52.160;20.910;2023-06-14T00:35:19;27.60;44.20
21171;DHT22;10743;52.160;20.910;2023-06-14T00:37:46;27.60;44.20
21171;DHT22;10743;52.160;20.910;2023-06-14T00:40:13;27.70;44.10
21171;DHT22;10743;52.160;20.910;2023-06-14T00:42:40;27.70;44.00
21171;DHT22;10743;52.160;20.910;2023-06-14T00:45:09;27.70;43.90
21171;DHT22;10743;52.160;20.910;2023-06-14T00:47:37;27.70;43.90
21171;DHT22;10743;52.160;20.910;2023-06-14T00:50:09;27.70;44.00
21171;DHT22;10743;52.160;20.910;2023-06-14T00:52:36;27.70;43.70
21171;DHT22;10743;52.160;20.910;2023-06-14T00:55:04;27.70;43.80
21171;DHT22;10743;52.160;20.910;2023-06-14T00:57:32;27.70;44.00
21171;DHT22;10743;52.160;20.910;2023-06-14T00:59:59;27.70;44.30
21171;DHT22;10743;52.160;20.910;2023-06-14T01:02:26;27.70;44.40
21171;DHT22;10743;52.160;20.910;2023-06-14T01:04:53;27.70;45.20
21171;DHT22;10743;52.160;20.910;2023-06-14T01:16:03;27.60;44.50
21171;DHT22;10743;52.160;20.910;2023-06-14T01:18:30;27.60;44.60
21171;DHT22;10743;52.160;20.910;2023-06-14T01:21:01;27.60;44.70
21171;DHT22;10743;52.160;20.910;2023-06-14T01:23:32;27.60;44.80
21171;DHT22;10743;52.160;20.910;2023-06-14T01:26:01;27.60;44.90
21171;DHT22;10743;52.160;20.910;2023-06-14T01:28:31;27.60;44.90
21171;DHT22;10743;52.160;20.910;2023-06-14T01:31:02;27.60;44.60
21171;DHT22;10743;52.160;20.910;2023-06-14T01:33:33;27.60;44.50
21171;DHT22;10743;52.160;20.910;2023-06-14T01:36:02;27.50;44.80
21171;DHT22;10743;52.160;20.910;2023-06-14T01:38:31;27.50;45.20
21171;DHT22;10743;52.160;20.910;2023-06-14T01:41:00;27.50;45.10
21171;DHT22;10743;52.160;20.910;2023-06-14T01:43:30;27.60;45.00
21171;DHT22;10743;52.160;20.910;2023-06-14T01:45:58;27.50;44.70
21171;DHT22;10743;52.160;20.910;2023-06-14T01:48:27;27.60;45.00
21171;DHT22;10743;52.160;20.910;2023-06-14T01:50:54;27.50;45.10
21171;DHT22;10743;52.160;20.910;2023-06-14T01:53:21;27.60;45.20
21171;DHT22;10743;52.160;20.910;2023-06-14T01:55:48;27.60;45.20
21171;DHT22;10743;52.160;20.910;2023-06-14T01:58:16;27.60;45.20
21171;DHT22;10743;52.160;20.910;2023-06-14T02:00:43;27.60;45.20
21171;DHT22;10743;52.160;20.910;2023-06-14T02:03:11;27.60;45.10
21171;DHT22;10743;52.160;20.910;2023-06-14T02:05:39;27.60;45.10
21171;DHT22;10743;52.160;20.910;2023-06-14T02:08:07;27.60;45.80
21171;DHT22;10743;52.160;20.910;2023-06-14T02:10:34;27.60;45.20
21171;DHT22;10743;52.160;20.910;2023-06-14T02:13:02;27.60;45.20
21171;DHT22;10743;52.160;20.910;2023-06-14T02:15:30;27.60;45.30
21171;DHT22;10743;52.160;20.910;2023-06-14T02:18:04;27.60;45.20
21171;DHT22;10743;52.160;20.910;2023-06-14T02:20:33;27.60;45.30
21171;DHT22;10743;52.160;20.910;2023-06-14T02:23:00;27.60;45.20
21171;DHT22;10743;52.160;20.910;2023-06-14T02:25:30;27.60;45.30
21171;DHT22;10743;52.160;20.910;2023-06-14T02:27:58;27.60;45.30
21171;DHT22;10743;52.160;20.910;2023-06-14T02:30:25;27.60;45.30
21171;DHT22;10743;52.160;20.910;2023-06-14T02:32:55;27.60;45.30
21171;DHT22;10743;52.160;20.910;2023-06-14T02:35:23;27.60;45.30
21171;DHT22;10743;52.160;20.910;2023-06-14T02:37:55;27.60;45.40
21171;DHT22;10743;52.160;20.910;2023-06-14T02:40:22;27.60;45.40
21171;DHT22;10743;52.160;20.910;2023-06-14T02:42:50;27.60;45.40
21171;DHT22;10743;52.160;20.910;2023-06-14T02:45:17;27.60;45.40
21171;DHT22;10743;52.160;20.910;2023-06-14T02:47:45;27.60;45.40
21171;DHT22;10743;52.160;20.910;2023-06-14T02:50:13;27.60;45.30
21171;DHT22;10743;52.160;20.910;2023-06-14T02:52:41;27.60;45.10
21171;DHT22;10743;52.160;20.910;2023-06-14T02:55:08;27.60;45.30
21171;DHT22;10743;52.160;20.910;2023-06-14T02:57:37;27.60;45.40
21171;DHT22;10743;52.160;20.910;2023-06-14T03:00:06;27.60;45.40
21171;DHT22;10743;52.160;20.910;2023-06-14T03:02:37;27.60;45.40
21171;DHT22;10743;52.160;20.910;2023-06-14T03:05:04;27.60;45.40
21171;DHT22;10743;52.160;20.910;2023-06-14T03:07:34;27.60;45.40
21171;DHT22;10743;52.160;20.910;2023-06-14T03:10:03;27.60;45.50
21171;DHT22;10743;52.160;20.910;2023-06-14T03:12:30;27.60;45.60
21171;DHT22;10743;52.160;20.910;2023-06-14T03:14:58;27.60;45.70
21171;DHT22;10743;52.160;20.910;2023-06-14T03:17:31;27.60;45.90
21171;DHT22;10743;52.160;20.910;2023-06-14T03:20:03;27.60;45.60
21171;DHT22;10743;52.160;20.910;2023-06-14T03:22:30;27.60;45.60
21171;DHT22;10743;52.160;20.910;2023-06-14T03:24:59;27.60;45.90
21171;DHT22;10743;52.160;20.910;2023-06-14T03:27:30;27.60;45.90
21171;DHT22;10743;52.160;20.910;2023-06-14T03:29:57;27.50;45.60
21171;DHT22;10743;52.160;20.910;2023-06-14T03:32:24;27.60;45.50
21171;DHT22;10743;52.160;20.910;2023-06-14T03:34:51;27.60;45.80
21171;DHT22;10743;52.160;20.910;2023-06-14T03:37:22;27.60;45.70
21171;DHT22;10743;52.160;20.910;2023-06-14T03:39:49;27.60;45.70
21171;DHT22;10743;52.160;20.910;2023-06-14T03:42:21;27.60;45.60
21171;DHT22;10743;52.160;20.910;2023-06-14T03:44:48;27.60;45.70
21171;DHT22;10743;52.160;20.910;2023-06-14T03:47:18;27.60;45.80
21171;DHT22;10743;52.160;20.910;2023-06-14T03:49:46;27.60;45.80
21171;DHT22;10743;52.160;20.910;2023-06-14T03:52:13;27.60;45.60
21171;DHT22;10743;52.160;20.910;2023-06-14T03:54:43;27.60;45.70
21171;DHT22;10743;52.160;20.910;2023-06-14T03:57:14;27.60;45.50
21171;DHT22;10743;52.160;20.910;2023-06-14T03:59:43;27.70;45.60
21171;DHT22;10743;52.160;20.910;2023-06-14T04:02:11;27.60;45.60
21171;DHT22;10743;52.160;20.910;2023-06-14T04:04:43;27.70;45.70
21171;DHT22;10743;52.160;20.910;2023-06-14T04:07:15;27.70;45.70
21171;DHT22;10743;52.160;20.910;2023-06-14T04:09:46;27.70;45.50
21171;DHT22;10743;52.160;20.910;2023-06-14T04:12:13;27.70;45.40
21171;DHT22;10743;52.160;20.910;2023-06-14T04:14:41;27.70;45.70
21171;DHT22;10743;52.160;20.910;2023-06-14T04:17:10;27.70;45.70
21171;DHT22;10743;52.160;20.910;2023-06-14T04:19:38;27.70;45.80
21171;DHT22;10743;52.160;20.910;2023-06-14T04:22:05;27.70;45.60
21171;DHT22;10743;52.160;20.910;2023-06-14T04:24:34;27.70;45.40
21171;DHT22;10743;52.160;20.910;2023-06-14T04:27:02;27.70;45.50
21171;DHT22;10743;52.160;20.910;2023-06-14T04:29:30;27.80;45.50
21171;DHT22;10743;52.160;20.910;2023-06-14T04:32:03;27.80;45.30
21171;DHT22;10743;52.160;20.910;2023-06-14T04:34:32;27.80;45.20
21171;DHT22;10743;52.160;20.910;2023-06-14T04:37:01;27.90;45.40
21171;DHT22;10743;52.160;20.910;2023-06-14T04:39:32;27.90;44.90
21171;DHT22;10743;52.160;20.910;2023-06-14T04:42:01;27.90;45.00
21171;DHT22;10743;52.160;20.910;2023-06-14T04:44:30;27.90;45.10
21171;DHT22;10743;52.160;20.910;2023-06-14T04:47:01;27.90;45.00
21171;DHT22;10743;52.160;20.910;2023-06-14T04:49:28;28.00;45.20
21171;DHT22;10743;52.160;20.910;2023-06-14T04:51:58;28.00;44.90
21171;DHT22;10743;52.160;20.910;2023-06-14T04:54:30;28.00;45.70
21171;DHT22;10743;52.160;20.910;2023-06-14T04:57:02;28.00;45.10
21171;DHT22;10743;52.160;20.910;2023-06-14T04:59:30;28.10;45.20
21171;DHT22;10743;52.160;20.910;2023-06-14T05:02:01;28.10;45.10
21171;DHT22;10743;52.160;20.910;2023-06-14T05:04:28;28.10;45.20
21171;DHT22;10743;52.160;20.910;2023-06-14T05:06:57;28.10;45.10
21171;DHT22;10743;52.160;20.910;2023-06-14T05:09:25;28.10;45.20
21171;DHT22;10743;52.160;20.910;2023-06-14T05:11:52;28.10;45.30
21171;DHT22;10743;52.160;20.910;2023-06-14T05:14:20;28.10;45.50
21171;DHT22;10743;52.160;20.910;2023-06-14T05:16:50;28.20;45.30
21171;DHT22;10743;52.160;20.910;2023-06-14T05:19:17;28.20;45.30
21171;DHT22;10743;52.160;20.910;2023-06-14T05:21:45;28.20;45.40
21171;DHT22;10743;52.160;20.910;2023-06-14T05:24:13;28.20;45.10
21171;DHT22;10743;52.160;20.910;2023-06-14T05:26:40;28.20;45.20
21171;DHT22;10743;52.160;20.910;2023-06-14T05:29:07;28.20;45.00
21171;DHT22;10743;52.160;20.910;2023-06-14T05:31:34;28.30;45.10
21171;DHT22;10743;52.160;20.910;2023-06-14T05:34:02;28.30;44.90
21171;DHT22;10743;52.160;20.910;2023-06-14T05:36:29;28.30;44.70
21171;DHT22;10743;52.160;20.910;2023-06-14T05:38:56;28.40;44.70
21171;DHT22;10743;52.160;20.910;2023-06-14T05:41:27;28.40;44.60
21171;DHT22;10743;52.160;20.910;2023-06-14T05:43:56;28.40;44.50
21171;DHT22;10743;52.160;20.910;2023-06-14T05:46:24;28.40;44.20
21171;DHT22;10743;52.160;20.910;2023-06-14T05:48:53;28.50;44.70
21171;DHT22;10743;52.160;20.910;2023-06-14T05:51:21;28.50;43.80
21171;DHT22;10743;52.160;20.910;2023-06-14T05:53:48;28.60;43.70
21171;DHT22;10743;52.160;20.910;2023-06-14T05:56:16;28.60;43.50
21171;DHT22;10743;52.160;20.910;2023-06-14T05:58:47;28.60;43.20
21171;DHT22;10743;52.160;20.910;2023-06-14T06:01:14;28.60;43.10
21171;DHT22;10743;52.160;20.910;2023-06-14T06:03:42;28.60;43.10
21171;DHT22;10743;52.160;20.910;2023-06-14T06:06:13;28.60;43.10
21171;DHT22;10743;52.160;20.910;2023-06-14T06:08:40;28.60;43.30
21171;DHT22;10743;52.160;20.910;2023-06-14T06:11:07;28.70;43.20
21171;DHT22;10743;52.160;20.910;2023-06-14T06:13:35;28.60;43.20
21171;DHT22;10743;52.160;20.910;2023-06-14T06:16:03;28.70;43.10
21171;DHT22;10743;52.160;20.910;2023-06-14T06:18:30;28.70;43.40
21171;DHT22;10743;52.160;20.910;2023-06-14T06:20:57;28.70;43.50
21171;DHT22;10743;52.160;20.910;2023-06-14T06:23:24;28.70;43.40
21171;DHT22;10743;52.160;20.910;2023-06-14T06:25:52;28.70;43.30
21171;DHT22;10743;52.160;20.910;2023-06-14T06:28:19;28.70;43.30
21171;DHT22;10743;52.160;20.910;2023-06-14T06:30:46;28.80;43.60
21171;DHT22;10743;52.160;20.910;2023-06-14T06:33:14;28.80;43.20
21171;DHT22;10743;52.160;20.910;2023-06-14T06:35:41;28.90;42.70
21171;DHT22;10743;52.160;20.910;2023-06-14T06:38:08;28.90;42.60
21171;DHT22;10743;52.160;20.910;2023-06-14T06:40:37;28.90;42.60
21171;DHT22;10743;52.160;20.910;2023-06-14T06:43:04;28.90;42.50
21171;DHT22;10743;52.160;20.910;2023-06-14T06:45:40;29.00;43.00
21171;DHT22;10743;52.160;20.910;2023-06-14T06:48:07;29.00;42.80
21171;DHT22;10743;52.160;20.910;2023-06-14T06:50:36;29.00;42.70
21171;DHT22;10743;52.160;20.910;2023-06-14T06:53:04;29.10;42.90
21171;DHT22;10743;52.160;20.910;2023-06-14T06:55:31;29.10;43.00
21171;DHT22;10743;52.160;20.910;2023-06-14T06:57:59;29.10;42.70
21171;DHT22;10743;52.160;20.910;2023-06-14T07:00:27;29.20;42.90
21171;DHT22;10743;52.160;20.910;2023-06-14T07:02:54;29.20;42.90
21171;DHT22;10743;52.160;20.910;2023-06-14T07:05:22;29.30;42.80
21171;DHT22;10743;52.160;20.910;2023-06-14T07:07:49;29.30;42.40
21171;DHT22;10743;52.160;20.910;2023-06-14T07:10:16;29.40;42.20
21171;DHT22;10743;52.160;20.910;2023-06-14T07:12:44;29.40;41.80
21171;DHT22;10743;52.160;20.910;2023-06-14T07:15:14;29.50;41.80
21171;DHT22;10743;52.160;20.910;2023-06-14T07:17:42;29.50;42.20
21171;DHT22;10743;52.160;20.910;2023-06-14T07:20:09;29.60;41.80
21171;DHT22;10743;52.160;20.910;2023-06-14T07:22:41;29.60;41.20
21171;DHT22;10743;52.160;20.910;2023-06-14T07:25:10;29.60;40.90
21171;DHT22;10743;52.160;20.910;2023-06-14T07:27:42;29.60;41.20
21171;DHT22;10743;52.160;20.910;2023-06-14T07:30:09;29.70;41.70
21171;DHT22;10743;52.160;20.910;2023-06-14T07:32:42;29.70;41.80
21171;DHT22;10743;52.160;20.910;2023-06-14T07:35:09;29.70;41.30
21171;DHT22;10743;52.160;20.910;2023-06-14T07:37:36;29.80;41.20
21171;DHT22;10743;52.160;20.910;2023-06-14T07:40:04;29.80;41.60
21171;DHT22;10743;52.160;20.910;2023-06-14T07:42:36;29.80;41.60
21171;DHT22;10743;52.160;20.910;2023-06-14T07:45:04;29.80;41.30
21171;DHT22;10743;52.160;20.910;2023-06-14T07:47:34;29.90;41.50
21171;DHT22;10743;52.160;20.910;2023-06-14T07:50:02;29.90;41.50
21171;DHT22;10743;52.160;20.910;2023-06-14T07:52:37;29.90;41.00
21171;DHT22;10743;52.160;20.910;2023-06-14T07:55:04;30.00;40.90
21171;DHT22;10743;52.160;20.910;2023-06-14T07:57:32;30.00;41.80
21171;DHT22;10743;52.160;20.910;2023-06-14T08:00:08;30.00;41.50
21171;DHT22;10743;52.160;20.910;2023-06-14T08:02:38;30.00;40.90
21171;DHT22;10743;52.160;20.910;2023-06-14T08:05:05;30.00;41.40
21171;DHT22;10743;52.160;20.910;2023-06-14T08:07:32;30.00;41.50
21171;DHT22;10743;52.160;20.910;2023-06-14T08:10:00;29.90;41.10
21171;DHT22;10743;52.160;20.910;2023-06-14T08:12:27;30.00;40.80
21171;DHT22;10743;52.160;20.910;2023-06-14T08:14:54;30.00;40.90
21171;DHT22;10743;52.160;20.910;2023-06-14T08:17:39;30.00;41.20
21171;DHT22;10743;52.160;20.910;2023-06-14T08:20:07;30.00;40.70
21171;DHT22;10743;52.160;20.910;2023-06-14T08:22:35;30.00;41.40
21171;DHT22;10743;52.160;20.910;2023-06-14T08:25:03;30.00;40.20
21171;DHT22;10743;52.160;20.910;2023-06-14T08:27:30;30.00;39.90
21171;DHT22;10743;52.160;20.910;2023-06-14T08:29:57;30.00;40.20
21171;DHT22;10743;52.160;20.910;2023-06-14T08:32:24;30.00;40.80
21171;DHT22;10743;52.160;20.910;2023-06-14T08:34:52;30.10;40.90
21171;DHT22;10743;52.160;20.910;2023-06-14T08:37:31;30.10;40.80
21171;DHT22;10743;52.160;20.910;2023-06-14T08:40:00;30.20;40.80
21171;DHT22;10743;52.160;20.910;2023-06-14T08:42:30;30.20;40.00
21171;DHT22;10743;52.160;20.910;2023-06-14T08:44:58;30.20;41.40
21171;DHT22;10743;52.160;20.910;2023-06-14T08:47:26;30.20;40.30
21171;DHT22;10743;52.160;20.910;2023-06-14T08:49:57;30.30;39.90
21171;DHT22;10743;52.160;20.910;2023-06-14T08:52:26;30.40;40.50
21171;DHT22;10743;52.160;20.910;2023-06-14T08:54:57;30.40;39.90
21171;DHT22;10743;52.160;20.910;2023-06-14T08:57:26;30.50;40.30
21171;DHT22;10743;52.160;20.910;2023-06-14T08:59:57;30.50;40.80
21171;DHT22;10743;52.160;20.910;2023-06-14T09:02:28;30.50;39.80
21171;DHT22;10743;52.160;20.910;2023-06-14T09:04:56;30.60;39.80
21171;DHT22;10743;52.160;20.910;2023-06-14T09:07:26;30.70;40.30
21171;DHT22;10743;52.160;20.910;2023-06-14T09:10:11;30.70;40.60
21171;DHT22;10743;52.160;20.910;2023-06-14T09:12:39;30.80;40.00
21171;DHT22;10743;52.160;20.910;2023-06-14T09:15:07;30.80;39.00
21171;DHT22;10743;52.160;20.910;2023-06-14T09:17:35;30.90;38.70
21171;DHT22;10743;52.160;20.910;2023-06-14T09:20:04;30.90;39.30
21171;DHT22;10743;52.160;20.910;2023-06-14T09:22:40;31.00;39.10
21171;DHT22;10743;52.160;20.910;2023-06-14T09:25:08;31.00;38.90
21171;DHT22;10743;52.160;20.910;2023-06-14T09:27:47;31.10;38.70
21171;DHT22;10743;52.160;20.910;2023-06-14T09:30:14;31.10;39.20
21171;DHT22;10743;52.160;20.910;2023-06-14T09:32:41;31.20;39.00
21171;DHT22;10743;52.160;20.910;2023-06-14T09:35:09;31.30;38.70
21171;DHT22;10743;52.160;20.910;2023-06-14T09:37:36;31.30;38.80
21171;DHT22;10743;52.160;20.910;2023-06-14T09:40:06;31.40;38.40
21171;DHT22;10743;52.160;20.910;2023-06-14T09:42:34;31.50;38.80
21171;DHT22;10743;52.160;20.910;2023-06-14T09:45:04;31.60;39.30
21171;DHT22;10743;52.160;20.910;2023-06-14T09:47:31;31.70;39.30
21171;DHT22;10743;52.160;20.910;2023-06-14T09:49:58;31.80;38.50
21171;DHT22;10743;52.160;20.910;2023-06-14T09:52:27;31.80;38.40
21171;DHT22;10743;52.160;20.910;2023-06-14T09:54:55;31.90;38.80
21171;DHT22;10743;52.160;20.910;2023-06-14T09:57:24;32.00;38.50
21171;DHT22;10743;52.160;20.910;2023-06-14T09:59:56;32.00;38.60
21171;DHT22;10743;52.160;20.910;2023-06-14T10:02:29;32.10;38.20
21171;DHT22;10743;52.160;20.910;2023-06-14T10:05:05;32.10;38.70
21171;DHT22;10743;52.160;20.910;2023-06-14T10:07:48;32.20;38.30
21171;DHT22;10743;52.160;20.910;2023-06-14T10:10:39;32.20;39.00
21171;DHT22;10743;52.160;20.910;2023-06-14T10:13:09;32.30;38.60
21171;DHT22;10743;52.160;20.910;2023-06-14T10:21:46;32.50;38.70
21171;DHT22;10743;52.160;20.910;2023-06-14T10:24:30;32.60;39.20
21171;DHT22;10743;52.160;20.910;2023-06-14T10:27:00;32.60;38.80
21171;DHT22;10743;52.160;20.910;2023-06-14T10:29:28;32.70;38.30
21171;DHT22;10743;52.160;20.910;2023-06-14T10:32:00;32.80;38.20
21171;DHT22;10743;52.160;20.910;2023-06-14T10:34:29;32.90;36.30
21171;DHT22;10743;52.160;20.910;2023-06-14T10:37:11;32.90;35.30
21171;DHT22;10743;52.160;20.910;2023-06-14T10:39:41;32.90;35.20
21171;DHT22;10743;52.160;20.910;2023-06-14T10:42:09;32.90;35.50
21171;DHT22;10743;52.160;20.910;2023-06-14T10:47:11;33.00;35.10
21171;DHT22;10743;52.160;20.910;2023-06-14T10:50:09;33.00;36.00
21171;DHT22;10743;52.160;20.910;2023-06-14T10:52:39;33.00;35.60
21171;DHT22;10743;52.160;20.910;2023-06-14T10:55:16;33.10;35.40
21171;DHT22;10743;52.160;20.910;2023-06-14T10:57:49;33.10;35.30
21171;DHT22;10743;52.160;20.910;2023-06-14T11:00:24;33.10;34.60
21171;DHT22;10743;52.160;20.910;2023-06-14T11:05:58;33.20;34.60
21171;DHT22;10743;52.160;20.910;2023-06-14T11:11:22;33.20;35.00
21171;DHT22;10743;52.160;20.910;2023-06-14T11:13:52;33.30;34.60
21171;DHT22;10743;52.160;20.910;2023-06-14T11:16:19;33.30;34.80
21171;DHT22;10743;52.160;20.910;2023-06-14T11:18:47;33.40;34.70
21171;DHT22;10743;52.160;20.910;2023-06-14T11:21:16;33.40;34.40
21171;DHT22;10743;52.160;20.910;2023-06-14T11:23:52;33.40;34.30
21171;DHT22;10743;52.160;20.910;2023-06-14T11:26:30;33.50;33.50
21171;DHT22;10743;52.160;20.910;2023-06-14T11:28:59;33.50;33.20
21171;DHT22;10743;52.160;20.910;2023-06-14T11:31:28;33.40;33.50
21171;DHT22;10743;52.160;20.910;2023-06-14T11:33:57;33.40;33.00
21171;DHT22;10743;52.160;20.910;2023-06-14T11:36:30;33.40;33.00
21171;DHT22;10743;52.160;20.910;2023-06-14T11:39:05;33.40;33.20
21171;DHT22;10743;52.160;20.910;2023-06-14T11:41:44;33.40;33.10
21171;DHT22;10743;52.160;20.910;2023-06-14T11:44:12;33.40;32.60
21171;DHT22;10743;52.160;20.910;2023-06-14T11:46:40;33.40;32.90
21171;DHT22;10743;52.160;20.910;2023-06-14T11:49:07;33.40;33.00
21171;DHT22;10743;52.160;20.910;2023-06-14T11:51:36;33.40;33.90
21171;DHT22;10743;52.160;20.910;2023-06-14T11:54:05;33.40;33.30
21171;DHT22;10743;52.160;20.910;2023-06-14T11:56:33;33.30;33.00
21171;DHT22;10743;52.160;20.910;2023-06-14T11:59:02;33.30;32.80
21171;DHT22;10743;52.160;20.910;2023-06-14T12:01:30;33.30;33.10
21171;DHT22;10743;52.160;20.910;2023-06-14T12:04:01;33.30;33.00
21171;DHT22;10743;52.160;20.910;2023-06-14T12:06:31;33.30;33.00
21171;DHT22;10743;52.160;20.910;2023-06-14T12:09:05;33.30;32.80
21171;DHT22;10743;52.160;20.910;2023-06-14T12:11:39;33.30;33.30
21171;DHT22;10743;52.160;20.910;2023-06-14T12:14:10;33.30;33.30
21171;DHT22;10743;52.160;20.910;2023-06-14T12:16:42;33.30;32.20
21171;DHT22;10743;52.160;20.910;2023-06-14T12:19:17;33.20;31.90
21171;DHT22;10743;52.160;20.910;2023-06-14T12:21:46;33.20;32.10
21171;DHT22;10743;52.160;20.910;2023-06-14T12:24:19;33.20;31.70
21171;DHT22;10743;52.160;20.910;2023-06-14T12:26:48;33.20;31.60
21171;DHT22;10743;52.160;20.910;2023-06-14T12:29:21;33.20;32.00
21171;DHT22;10743;52.160;20.910;2023-06-14T12:31:48;33.20;32.20
21171;DHT22;10743;52.160;20.910;2023-06-14T12:34:15;33.20;32.30
21171;DHT22;10743;52.160;20.910;2023-06-14T12:36:42;33.20;31.40
21171;DHT22;10743;52.160;20.910;2023-06-14T12:39:12;33.20;31.00
21171;DHT22;10743;52.160;20.910;2023-06-14T12:41:39;33.20;30.70
21171;DHT22;10743;52.160;20.910;2023-06-14T12:44:10;33.20;31.40
21171;DHT22;10743;52.160;20.910;2023-06-14T12:46:39;33.10;30.90
21171;DHT22;10743;52.160;20.910;2023-06-14T12:49:08;33.10;31.20
21171;DHT22;10743;52.160;20.910;2023-06-14T12:51:37;33.10;31.20
21171;DHT22;10743;52.160;20.910;2023-06-14T12:54:05;33.10;31.20
21171;DHT22;10743;52.160;20.910;2023-06-14T12:56:33;33.10;31.00
21171;DHT22;10743;52.160;20.910;2023-06-14T12:59:00;33.10;31.00
21171;DHT22;10743;52.160;20.910;2023-06-14T13:01:27;33.00;31.40
21171;DHT22;10743;52.160;20.910;2023-06-14T13:03:54;33.10;31.30
21171;DHT22;10743;52.160;20.910;2023-06-14T13:06:22;33.10;30.70
21171;DHT22;10743;52.160;20.910;2023-06-14T13:08:51;33.10;30.60
21171;DHT22;10743;52.160;20.910;2023-06-14T13:11:21;33.10;30.30
21171;DHT22;10743;52.160;20.910;2023-06-14T13:13:48;33.20;30.80
21171;DHT22;10743;52.160;20.910;2023-06-14T13:16:15;33.20;30.90
21171;DHT22;10743;52.160;20.910;2023-06-14T13:18:42;33.20;31.50
21171;DHT22;10743;52.160;20.910;2023-06-14T13:21:10;33.30;31.70
21171;DHT22;10743;52.160;20.910;2023-06-14T13:23:37;33.30;31.10
21171;DHT22;10743;52.160;20.910;2023-06-14T13:26:04;33.30;30.80
21171;DHT22;10743;52.160;20.910;2023-06-14T13:28:31;33.30;30.90
21171;DHT22;10743;52.160;20.910;2023-06-14T13:30:59;33.30;30.90
21171;DHT22;10743;52.160;20.910;2023-06-14T13:33:26;33.30;30.60
21171;DHT22;10743;52.160;20.910;2023-06-14T13:35:53;33.30;30.10
21171;DHT22;10743;52.160;20.910;2023-06-14T13:38:20;33.30;30.50
21171;DHT22;10743;52.160;20.910;2023-06-14T13:40:47;33.30;30.20
21171;DHT22;10743;52.160;20.910;2023-06-14T13:43:14;33.30;30.10
21171;DHT22;10743;52.160;20.910;2023-06-14T13:45:42;33.30;29.80
21171;DHT22;10743;52.160;20.910;2023-06-14T13:48:09;33.20;29.50
21171;DHT22;10743;52.160;20.910;2023-06-14T13:50:36;33.10;29.60
21171;DHT22;10743;52.160;20.910;2023-06-14T13:53:03;33.10;29.90
21171;DHT22;10743;52.160;20.910;2023-06-14T13:55:30;33.00;29.90
21171;DHT22;10743;52.160;20.910;2023-06-14T13:57:57;33.00;30.30
21171;DHT22;10743;52.160;20.910;2023-06-14T14:00:24;33.00;30.30
21171;DHT22;10743;52.160;20.910;2023-06-14T14:02:51;33.00;30.30
21171;DHT22;10743;52.160;20.910;2023-06-14T14:05:19;33.00;30.50
21171;DHT22;10743;52.160;20.910;2023-06-14T14:07:47;32.90;30.90
21171;DHT22;10743;52.160;20.910;2023-06-14T14:10:14;32.90;31.40
21171;DHT22;10743;52.160;20.910;2023-06-14T14:12:42;32.90;31.60
21171;DHT22;10743;52.160;20.910;2023-06-14T14:15:09;32.90;31.60
21171;DHT22;10743;52.160;20.910;2023-06-14T14:17:40;32.90;31.60
21171;DHT22;10743;52.160;20.910;2023-06-14T14:20:08;32.90;31.90
21171;DHT22;10743;52.160;20.910;2023-06-14T14:22:36;32.90;32.10
21171;DHT22;10743;52.160;20.910;2023-06-14T14:25:03;33.00;31.20
21171;DHT22;10743;52.160;20.910;2023-06-14T14:27:31;33.00;31.20
21171;DHT22;10743;52.160;20.910;2023-06-14T14:29:57;33.00;31.20
21171;DHT22;10743;52.160;20.910;2023-06-14T14:32:25;33.00;31.20
21171;DHT22;10743;52.160;20.910;2023-06-14T14:34:52;33.00;30.70
21171;DHT22;10743;52.160;20.910;2023-06-14T14:37:19;33.00;31.20
21171;DHT22;10743;52.160;20.910;2023-06-14T14:39:46;33.00;31.40
21171;DHT22;10743;52.160;20.910;2023-06-14T14:42:13;33.00;31.60
21171;DHT22;10743;52.160;20.910;2023-06-14T14:44:40;33.90;32.30
21171;DHT22;10743;52.160;20.910;2023-06-14T14:47:07;32.90;31.90
21171;DHT22;10743;52.160;20.910;2023-06-14T14:49:35;32.90;31.70
21171;DHT22;10743;52.160;20.910;2023-06-14T14:52:02;32.90;31.90
21171;DHT22;10743;52.160;20.910;2023-06-14T14:54:48;32.80;31.50
21171;DHT22;10743;52.160;20.910;2023-06-14T14:57:15;32.80;31.70
21171;DHT22;10743;52.160;20.910;2023-06-14T14:59:42;32.80;31.70
21171;DHT22;10743;52.160;20.910;2023-06-14T15:02:09;32.80;32.00
21171;DHT22;10743;52.160;20.910;2023-06-14T15:04:37;32.80;32.00
21171;DHT22;10743;52.160;20.910;2023-06-14T15:07:04;32.80;32.30
21171;DHT22;10743;52.160;20.910;2023-06-14T15:09:33;32.80;32.20
21171;DHT22;10743;52.160;20.910;2023-06-14T15:12:00;32.80;32.30
21171;DHT22;10743;52.160;20.910;2023-06-14T15:14:27;32.80;32.30
21171;DHT22;10743;52.160;20.910;2023-06-14T15:16:54;32.80;32.20
21171;DHT22;10743;52.160;20.910;2023-06-14T15:19:21;32.70;31.90
21171;DHT22;10743;52.160;20.910;2023-06-14T15:21:48;32.80;31.80
21171;DHT22;10743;52.160;20.910;2023-06-14T15:24:15;32.70;32.20
21171;DHT22;10743;52.160;20.910;2023-06-14T15:26:52;32.70;32.10
21171;DHT22;10743;52.160;20.910;2023-06-14T15:29:20;32.60;31.80
21171;DHT22;10743;52.160;20.910;2023-06-14T15:31:47;32.60;32.10
21171;DHT22;10743;52.160;20.910;2023-06-14T15:34:15;32.60;31.90
21171;DHT22;10743;52.160;20.910;2023-06-14T15:36:42;32.60;32.20
21171;DHT22;10743;52.160;20.910;2023-06-14T15:39:09;32.60;32.50
21171;DHT22;10743;52.160;20.910;2023-06-14T15:41:36;32.60;32.10
21171;DHT22;10743;52.160;20.910;2023-06-14T15:44:04;32.60;31.80
21171;DHT22;10743;52.160;20.910;2023-06-14T15:46:31;32.60;31.70
21171;DHT22;10743;52.160;20.910;2023-06-14T15:48:58;32.60;31.80